createdAt,value
2022-08-09T00:01:57.353Z,5.32
2022-08-09T00:04:34.513Z,4.72
2022-08-09T00:07:10.653Z,6.15
2022-08-09T00:09:40.644Z,5.38
2022-08-09T00:12:15.601Z,5.35
2022-08-09T00:14:54.500Z,3.47
2022-08-09T00:18:05.056Z,4.47
2022-08-09T00:20:16.938Z,4.72
2022-08-09T00:22:47.303Z,6.68
2022-08-09T00:25:23.273Z,4.40
2022-08-09T00:27:55.910Z,14.00
2022-08-09T00:30:27.055Z,4.13
2022-08-09T00:32:56.549Z,5.25
2022-08-09T00:35:29.647Z,3.88
2022-08-09T00:38:12.730Z,6.65
2022-08-09T00:40:52.486Z,4.28
2022-08-09T00:44:11.766Z,5.30
2022-08-09T00:46:14.596Z,4.90
2022-08-09T00:49:03.886Z,3.45
2022-08-09T00:51:33.847Z,5.80
2022-08-09T00:54:03.649Z,5.15
2022-08-09T00:56:33.203Z,3.85
2022-08-09T00:59:02.824Z,4.30
2022-08-09T01:01:44.931Z,3.75
2022-08-09T01:07:17.576Z,5.25
2022-08-09T01:10:07.751Z,5.15
2022-08-09T01:12:48.208Z,5.43
2022-08-09T01:15:24.000Z,3.67
2022-08-09T01:18:08.523Z,4.45
2022-08-09T01:20:43.891Z,3.83
2022-08-09T01:24:01.699Z,4.50
2022-08-09T01:26:47.203Z,5.60
2022-08-09T01:29:41.206Z,4.05
2022-08-09T01:32:31.361Z,7.13
2022-08-09T01:35:17.918Z,9.23
2022-08-09T01:38:08.329Z,5.43
2022-08-09T01:40:45.187Z,4.03
2022-08-09T01:43:24.134Z,3.40
2022-08-09T01:45:58.127Z,3.70
2022-08-09T01:48:31.568Z,6.18
2022-08-09T01:51:02.594Z,5.07
2022-08-09T01:53:41.664Z,4.25
2022-08-09T01:56:13.362Z,4.07
2022-08-09T01:58:48.983Z,4.00
2022-08-09T02:01:21.490Z,5.15
2022-08-09T02:04:12.424Z,4.82
2022-08-09T02:06:58.705Z,7.40
2022-08-09T02:09:42.084Z,5.93
2022-08-09T02:12:21.120Z,7.93
2022-08-09T02:14:55.987Z,7.28
2022-08-09T02:18:00.511Z,9.65
2022-08-09T02:20:26.407Z,5.15
2022-08-09T02:23:13.158Z,5.10
2022-08-09T02:25:49.685Z,4.30
2022-08-09T02:28:26.517Z,5.60
2022-08-09T02:31:07.642Z,8.45
2022-08-09T02:34:07.353Z,5.30
2022-08-09T02:36:42.008Z,8.65
2022-08-09T02:39:33.271Z,5.32
2022-08-09T02:42:07.282Z,7.10
2022-08-09T02:44:43.019Z,7.22
2022-08-09T02:47:15.325Z,6.22
2022-08-09T02:52:41.451Z,5.38
2022-08-09T02:55:20.849Z,7.43
2022-08-09T02:58:00.320Z,7.15
2022-08-09T03:00:58.175Z,7.80
2022-08-09T03:04:13.326Z,7.60
2022-08-09T03:06:21.430Z,7.80
2022-08-09T03:08:54.283Z,10.65
2022-08-09T03:11:30.066Z,7.60
2022-08-09T03:14:15.949Z,8.00
2022-08-09T03:16:48.197Z,6.95
2022-08-09T03:19:52.660Z,8.02
2022-08-09T03:22:25.215Z,6.95
2022-08-09T03:25:21.754Z,10.88
2022-08-09T03:27:55.580Z,11.15
2022-08-09T03:30:33.102Z,10.60
2022-08-09T03:33:17.928Z,7.88
2022-08-09T03:36:13.893Z,14.88
2022-08-09T03:38:45.647Z,14.98
2022-08-09T03:41:18.372Z,9.02
2022-08-09T03:44:04.019Z,7.30
2022-08-09T03:46:39.101Z,6.60
2022-08-09T03:49:09.683Z,8.40
2022-08-09T03:51:56.120Z,8.15
2022-08-09T03:54:34.716Z,9.57
2022-08-09T03:57:20.066Z,9.82
2022-08-09T04:00:00.518Z,12.02
2022-08-09T04:02:34.216Z,9.05
2022-08-09T04:05:06.319Z,6.90
2022-08-09T04:07:53.320Z,9.05
2022-08-09T04:10:28.891Z,9.57
2022-08-09T04:13:09.515Z,8.93
2022-08-09T04:16:19.672Z,9.18
2022-08-09T04:18:34.050Z,8.77
2022-08-09T04:21:03.949Z,9.45
2022-08-09T04:23:33.361Z,11.50
2022-08-09T04:26:02.903Z,9.68
2022-08-09T04:28:36.140Z,7.90
2022-08-09T04:31:13.043Z,9.73
2022-08-09T04:33:51.930Z,9.75
2022-08-09T04:36:26.532Z,9.07
2022-08-09T04:38:57.197Z,8.20
2022-08-09T04:41:32.416Z,22.80
2022-08-09T04:44:10.969Z,11.13
2022-08-09T04:46:59.351Z,9.88
2022-08-09T04:49:52.515Z,9.27
2022-08-09T04:52:27.930Z,9.75
2022-08-09T04:55:01.422Z,9.13
2022-08-09T04:57:58.502Z,11.35
2022-08-09T05:00:22.332Z,9.90
2022-08-09T05:02:53.246Z,10.25
2022-08-09T05:05:32.096Z,11.40
2022-08-09T05:08:13.959Z,10.65
2022-08-09T05:10:44.961Z,10.38
2022-08-09T05:13:17.307Z,11.32
2022-08-09T05:18:39.043Z,10.40
2022-08-09T05:24:01.593Z,10.07
2022-08-09T05:26:36.371Z,12.13
2022-08-09T05:29:07.173Z,12.25
2022-08-09T05:31:56.761Z,13.82
2022-08-09T05:34:30.913Z,10.13
2022-08-09T05:37:11.454Z,11.20
2022-08-09T05:39:44.386Z,10.35
2022-08-09T05:42:21.429Z,14.40
2022-08-09T05:44:56.018Z,12.45
2022-08-09T05:47:30.182Z,11.85
2022-08-09T05:50:26.088Z,11.57
2022-08-09T05:52:53.999Z,10.38
2022-08-09T05:55:25.011Z,11.13
2022-08-09T05:57:57.350Z,12.82
2022-08-09T06:00:32.890Z,10.80
2022-08-09T06:03:10.689Z,11.68
2022-08-09T06:05:58.239Z,11.10
2022-08-09T06:08:32.135Z,11.35
2022-08-09T06:11:01.813Z,8.70
2022-08-09T06:13:47.497Z,11.00
2022-08-09T06:16:17.933Z,9.82
2022-08-09T06:18:47.307Z,12.07
2022-08-09T06:21:16.689Z,9.65
2022-08-09T06:23:57.936Z,10.57
2022-08-09T06:26:31.754Z,9.35
2022-08-09T06:29:05.147Z,9.75
2022-08-09T06:31:39.814Z,9.80
2022-08-09T06:34:26.163Z,9.50
2022-08-09T06:36:59.149Z,9.15
2022-08-09T06:39:48.470Z,8.25
2022-08-09T06:42:20.240Z,10.00
2022-08-09T06:44:54.739Z,8.55
2022-08-09T06:47:25.030Z,10.85
2022-08-09T06:50:15.703Z,8.25
2022-08-09T06:52:49.104Z,8.48
2022-08-09T06:55:22.892Z,7.55
2022-08-09T06:58:03.117Z,6.43
2022-08-09T07:00:50.918Z,9.25
2022-08-09T07:03:29.041Z,6.43
2022-08-09T07:06:03.771Z,7.05
2022-08-09T07:08:37.184Z,6.45
2022-08-09T07:11:07.475Z,7.70
2022-08-09T07:13:45.465Z,7.18
2022-08-09T07:16:43.973Z,5.88
2022-08-09T07:19:18.662Z,8.00
2022-08-09T07:21:57.355Z,7.20
2022-08-09T07:24:32.836Z,8.68
2022-08-09T07:27:26.970Z,5.72
2022-08-09T07:30:01.378Z,7.18
2022-08-09T07:32:33.624Z,9.23
2022-08-09T07:35:08.118Z,5.47
2022-08-09T07:37:43.309Z,10.45
2022-08-09T07:40:20.510Z,6.50
2022-08-09T07:42:59.283Z,6.55
2022-08-09T07:45:39.179Z,7.72
2022-08-09T07:48:25.543Z,6.55
2022-08-09T07:51:10.371Z,7.25
2022-08-09T07:54:07.781Z,7.10
2022-08-09T07:56:48.874Z,5.78
2022-08-09T07:59:25.612Z,5.97
2022-08-09T08:02:05.469Z,8.57
2022-08-09T08:04:36.566Z,5.90
2022-08-09T08:07:15.347Z,5.78
2022-08-09T08:10:05.867Z,6.07
2022-08-09T08:12:42.862Z,4.38
2022-08-09T08:15:16.505Z,4.90
2022-08-09T08:17:54.780Z,8.88
2022-08-09T08:20:32.554Z,7.30
2022-08-09T08:23:16.360Z,11.57
2022-08-09T08:26:06.184Z,4.65
2022-08-09T08:28:37.537Z,7.60
2022-08-09T08:31:13.970Z,5.70
2022-08-09T08:33:52.653Z,8.15
2022-08-09T08:36:29.261Z,6.45
2022-08-09T08:39:00.811Z,4.90
2022-08-09T08:41:50.997Z,5.75
2022-08-09T08:44:27.036Z,7.95
2022-08-09T08:47:05.202Z,8.30
2022-08-09T08:49:48.672Z,4.45
2022-08-09T08:52:58.521Z,7.03
2022-08-09T08:55:27.848Z,5.70
2022-08-09T08:57:58.328Z,6.72
2022-08-09T09:00:34.665Z,5.30
2022-08-09T09:03:11.385Z,3.90
2022-08-09T09:05:58.802Z,2.40
2022-08-09T09:08:42.784Z,4.75
2022-08-09T09:11:19.627Z,2.28
2022-08-09T09:13:55.107Z,6.93
2022-08-09T09:16:30.432Z,4.68
2022-08-09T09:19:37.443Z,2.20
2022-08-09T09:22:07.469Z,6.63
2022-08-09T09:24:43.545Z,7.00
2022-08-09T09:28:02.804Z,4.72
2022-08-09T09:30:39.897Z,4.60
2022-08-09T09:33:15.367Z,3.70
2022-08-09T09:36:03.976Z,5.32
2022-08-09T09:38:50.371Z,2.85
2022-08-09T09:41:26.393Z,2.95
2022-08-09T09:44:12.222Z,2.55
2022-08-09T09:46:52.043Z,3.60
2022-08-09T09:49:50.141Z,4.03
2022-08-09T09:52:16.657Z,5.88
2022-08-09T09:55:16.276Z,3.03
2022-08-09T09:58:17.011Z,1.98
2022-08-09T10:01:00.555Z,2.20
2022-08-09T10:03:57.114Z,2.92
2022-08-09T10:06:47.040Z,3.42
2022-08-09T10:09:22.544Z,4.82
2022-08-09T10:12:12.435Z,4.65
2022-08-09T10:14:51.944Z,1.90
2022-08-09T10:17:55.065Z,2.15
2022-08-09T10:20:27.555Z,8.18
2022-08-09T10:23:17.307Z,4.28
2022-08-09T10:26:07.256Z,2.00
2022-08-09T10:28:39.974Z,9.55
2022-08-09T10:34:18.720Z,1.75
2022-08-09T10:36:56.798Z,2.67
2022-08-09T10:39:28.728Z,3.35
2022-08-09T10:44:32.020Z,3.35
2022-08-09T10:48:16.387Z,4.53
2022-08-09T10:51:13.652Z,4.85
2022-08-09T10:54:13.115Z,4.03
2022-08-09T10:56:45.010Z,3.75
2022-08-09T10:59:55.393Z,2.67
2022-08-09T11:03:27.582Z,3.88
2022-08-09T11:05:31.302Z,2.15
2022-08-09T11:08:47.988Z,4.43
2022-08-09T11:11:23.022Z,4.40
2022-08-09T11:14:31.853Z,2.20
2022-08-09T11:17:01.487Z,2.97
2022-08-09T11:20:10.126Z,2.72
2022-08-09T11:22:56.625Z,2.45
2022-08-09T11:25:47.650Z,1.75
2022-08-09T11:28:55.750Z,4.05
2022-08-09T11:31:48.786Z,6.50
2022-08-09T11:34:31.055Z,3.28
2022-08-09T11:37:02.407Z,3.03
2022-08-09T11:40:03.049Z,1.70
2022-08-09T11:42:51.903Z,4.63
2022-08-09T11:45:41.983Z,5.15
2022-08-09T11:48:26.604Z,2.58
2022-08-09T11:52:36.722Z,2.17
2022-08-09T11:56:34.427Z,3.40
2022-08-09T11:59:30.693Z,5.40
2022-08-09T12:02:21.232Z,1.20
2022-08-09T12:04:58.906Z,3.42
2022-08-09T12:07:41.314Z,2.30
2022-08-09T12:10:39.274Z,3.92
2022-08-09T12:14:10.542Z,1.55
2022-08-09T12:15:53.413Z,2.72
2022-08-09T12:18:29.848Z,3.45
2022-08-09T12:21:02.554Z,6.32
2022-08-09T12:24:00.403Z,2.45
2022-08-09T12:26:26.086Z,1.80
2022-08-09T12:34:44.364Z,5.68
2022-08-09T12:37:23.992Z,1.83
2022-08-09T12:40:03.630Z,3.58
2022-08-09T12:42:35.879Z,2.33
2022-08-09T12:45:33.387Z,2.63
2022-08-09T12:47:58.276Z,2.87
2022-08-09T12:50:28.642Z,4.53
2022-08-09T12:53:09.525Z,5.90
2022-08-09T12:56:14.417Z,2.63
2022-08-09T12:58:44.049Z,2.22
2022-08-09T13:01:32.300Z,2.10
2022-08-09T13:04:21.719Z,1.85
2022-08-09T13:07:13.716Z,2.17
2022-08-09T13:09:52.782Z,2.88
2022-08-09T13:12:25.936Z,2.35
2022-08-09T13:15:08.604Z,4.78
2022-08-09T13:18:02.435Z,1.52
2022-08-09T13:21:03.890Z,2.80
2022-08-09T13:24:06.851Z,4.15
2022-08-09T13:26:42.638Z,4.13
2022-08-09T13:29:15.248Z,2.05
2022-08-09T13:32:19.997Z,2.30
2022-08-09T13:34:48.416Z,4.18
2022-08-09T13:37:50.911Z,2.03
2022-08-09T13:41:51.142Z,1.52
2022-08-09T13:43:05.011Z,3.58
2022-08-09T13:46:43.249Z,3.47
2022-08-09T13:48:24.704Z,1.20
2022-08-09T13:50:54.220Z,4.28
2022-08-09T13:53:41.353Z,2.22
2022-08-09T13:56:13.903Z,3.55
2022-08-09T13:58:43.543Z,4.47
2022-08-09T14:01:55.733Z,4.13
2022-08-09T14:04:11.419Z,2.30
2022-08-09T14:06:43.846Z,1.73
2022-08-09T14:09:16.258Z,2.50
2022-08-09T14:11:47.661Z,1.48
2022-08-09T14:14:26.150Z,1.75
2022-08-09T14:16:57.822Z,3.70
2022-08-09T14:19:30.365Z,4.60
2022-08-09T14:22:03.366Z,2.75
2022-08-09T14:24:33.731Z,3.65
2022-08-09T14:27:03.641Z,2.38
2022-08-09T14:30:19.322Z,2.58
2022-08-09T14:32:39.300Z,1.75
2022-08-09T14:35:12.650Z,3.47
2022-08-09T14:38:03.032Z,2.83
2022-08-09T14:41:00.634Z,3.97
2022-08-09T14:43:21.785Z,3.38
2022-08-09T14:46:54.918Z,2.35
2022-08-09T14:48:42.916Z,2.28
2022-08-09T14:51:14.861Z,2.60
2022-08-09T14:53:48.715Z,2.65
2022-08-09T14:56:22.380Z,3.00
2022-08-09T14:58:57.865Z,3.58
2022-08-09T15:01:27.393Z,2.23
2022-08-09T15:03:56.786Z,3.08
2022-08-09T15:06:28.487Z,2.47
2022-08-09T15:08:59.474Z,1.80
2022-08-09T15:11:29.178Z,1.70
2022-08-09T15:14:04.779Z,1.48
2022-08-09T15:16:43.061Z,2.50
2022-08-09T15:19:17.983Z,2.50
2022-08-09T15:21:58.871Z,1.55
2022-08-09T15:24:31.507Z,2.50
2022-08-09T15:27:00.851Z,2.65
2022-08-09T15:30:58.730Z,1.98
2022-08-09T15:32:39.013Z,2.22
2022-08-09T15:35:18.334Z,1.30
2022-08-09T15:38:11.624Z,1.55
2022-08-09T15:40:44.225Z,2.22
2022-08-09T15:43:17.106Z,3.30
2022-08-09T15:45:51.864Z,2.28
2022-08-09T15:48:36.424Z,7.65
2022-08-09T15:51:30.242Z,1.83
2022-08-09T15:54:05.277Z,1.30
2022-08-09T15:56:41.579Z,1.92
2022-08-09T15:59:13.935Z,3.10
2022-08-09T16:01:43.232Z,3.17
2022-08-09T16:04:13.739Z,3.10
2022-08-09T16:06:44.820Z,1.58
2022-08-09T16:09:32.725Z,2.35
2022-08-09T16:12:11.275Z,3.17
2022-08-09T16:14:41.025Z,1.38
2022-08-09T16:17:11.987Z,5.47
2022-08-09T16:19:49.326Z,2.30
2022-08-09T16:22:33.255Z,3.40
2022-08-09T16:25:04.091Z,2.00
2022-08-09T16:27:36.169Z,2.00
2022-08-09T16:30:09.529Z,4.07
2022-08-09T16:32:57.245Z,2.13
2022-08-09T16:35:55.961Z,1.33
2022-08-09T16:38:18.000Z,1.10
2022-08-09T16:40:48.058Z,3.00
2022-08-09T16:43:18.103Z,2.83
2022-08-09T16:45:48.157Z,1.05
2022-08-09T16:48:39.025Z,1.08
2022-08-09T16:51:14.337Z,2.17
2022-08-09T16:54:22.450Z,4.20
2022-08-09T16:56:37.790Z,2.42
2022-08-09T16:59:18.716Z,2.95
2022-08-09T17:01:51.317Z,1.98
2022-08-09T17:04:25.497Z,1.77
2022-08-09T17:08:43.600Z,1.40
2022-08-09T17:09:47.499Z,2.90
2022-08-09T17:12:19.546Z,1.45
2022-08-09T17:14:54.980Z,1.83
2022-08-09T17:17:27.923Z,1.83
2022-08-09T17:20:28.604Z,2.92
2022-08-09T17:22:52.411Z,1.30
2022-08-09T17:25:23.638Z,1.85
2022-08-09T17:27:55.201Z,3.65
2022-08-09T17:30:30.637Z,0.88
2022-08-09T17:33:05.136Z,1.67
2022-08-09T17:35:51.514Z,4.67
2022-08-09T17:38:30.967Z,0.95
2022-08-09T17:41:04.664Z,0.63
2022-08-09T17:43:37.367Z,1.88
2022-08-09T17:46:10.683Z,0.93
2022-08-09T17:48:51.895Z,1.30
2022-08-09T17:53:54.848Z,2.75
2022-08-09T17:56:35.416Z,1.52
2022-08-09T17:59:11.494Z,2.90
2022-08-09T18:02:07.645Z,0.70
2022-08-09T18:04:32.092Z,2.92
2022-08-09T18:07:04.706Z,1.35
2022-08-09T18:09:40.465Z,3.10
2022-08-09T18:12:20.346Z,0.65
2022-08-09T18:14:57.034Z,1.88
2022-08-09T18:18:01.730Z,2.90
2022-08-09T18:20:55.190Z,2.58
2022-08-09T18:23:08.247Z,1.42
2022-08-09T18:25:57.987Z,2.85
2022-08-09T18:30:42.689Z,3.63
2022-08-09T18:34:08.901Z,1.40
2022-08-09T18:36:38.374Z,1.10
2022-08-09T18:39:11.158Z,2.22
2022-08-09T18:41:53.197Z,2.63
2022-08-09T18:44:25.778Z,4.07
2022-08-09T18:47:08.251Z,5.82
2022-08-09T18:49:46.545Z,1.75
2022-08-09T18:52:18.750Z,1.25
2022-08-09T18:54:57.847Z,1.00
2022-08-09T18:57:42.804Z,2.38
2022-08-09T19:00:20.068Z,1.65
2022-08-09T19:02:54.024Z,3.25
2022-08-09T19:05:41.598Z,1.05
2022-08-09T19:08:19.588Z,2.78
2022-08-09T19:10:50.749Z,2.05
2022-08-09T19:13:38.367Z,1.30
2022-08-09T19:16:12.895Z,2.70
2022-08-09T19:18:45.360Z,5.05
2022-08-09T19:21:15.177Z,6.55
2022-08-09T19:24:35.416Z,2.22
2022-08-09T19:26:38.463Z,2.38
2022-08-09T19:29:17.980Z,2.25
2022-08-09T19:31:51.693Z,1.80
2022-08-09T19:34:24.742Z,2.53
2022-08-09T19:36:57.706Z,6.38
2022-08-09T19:39:29.087Z,2.42
2022-08-09T19:42:19.678Z,4.15
2022-08-09T19:44:53.540Z,2.33
2022-08-09T19:47:27.002Z,2.58
2022-08-09T19:50:09.374Z,2.38
2022-08-09T19:52:49.343Z,3.13
2022-08-09T19:55:30.804Z,2.47
2022-08-09T19:58:15.879Z,3.75
2022-08-09T20:00:47.281Z,2.55
2022-08-09T20:04:11.439Z,3.10
2022-08-09T20:06:22.173Z,1.77
2022-08-09T20:08:55.503Z,1.67
2022-08-09T20:11:27.057Z,2.22
2022-08-09T20:14:03.029Z,3.85
2022-08-09T20:16:50.158Z,2.42
2022-08-09T20:19:49.047Z,2.35
2022-08-09T20:22:13.924Z,2.55
2022-08-09T20:24:51.353Z,1.30
2022-08-09T20:27:23.169Z,1.17
2022-08-09T20:29:53.106Z,1.58
2022-08-09T20:32:30.617Z,0.77
2022-08-09T20:35:04.014Z,2.03
2022-08-09T20:37:37.870Z,4.18
2022-08-09T20:40:27.191Z,2.60
2022-08-09T20:43:00.350Z,4.13
2022-08-09T20:46:00.650Z,1.63
2022-08-09T20:48:41.936Z,4.55
2022-08-09T20:51:19.653Z,3.67
2022-08-09T20:53:49.519Z,4.03
2022-08-09T20:56:21.905Z,2.47
2022-08-09T20:58:58.882Z,3.40
2022-08-09T21:01:50.622Z,1.42
2022-08-09T21:05:53.796Z,1.05
2022-08-09T21:07:16.936Z,1.98
2022-08-09T21:09:55.427Z,7.25
2022-08-09T21:15:23.826Z,1.35
2022-08-09T21:18:21.118Z,3.10
2022-08-09T21:20:54.562Z,1.80
2022-08-09T21:23:47.538Z,2.40
2022-08-09T21:26:16.076Z,1.70
2022-08-09T21:28:55.776Z,3.13
2022-08-09T21:31:49.226Z,1.55
2022-08-09T21:34:28.680Z,1.90
2022-08-09T21:36:58.952Z,1.33
2022-08-09T21:39:42.144Z,1.75
2022-08-09T21:42:13.050Z,2.17
2022-08-09T21:44:43.670Z,2.17
2022-08-09T21:47:18.273Z,4.28
2022-08-09T21:49:48.188Z,2.08
2022-08-09T21:52:20.930Z,3.78
2022-08-09T21:54:57.182Z,2.00
2022-08-09T21:57:59.619Z,3.75
2022-08-09T22:00:33.572Z,3.47
2022-08-09T22:03:19.684Z,1.27
2022-08-09T22:05:57.909Z,2.13
2022-08-09T22:08:28.300Z,1.48
2022-08-09T22:11:50.537Z,1.67
2022-08-09T22:13:48.299Z,1.83
2022-08-09T22:16:19.570Z,2.72
2022-08-09T22:18:54.005Z,1.60
2022-08-09T22:21:45.272Z,2.25
2022-08-09T22:24:24.092Z,2.58
2022-08-09T22:26:54.295Z,1.95
2022-08-09T22:29:32.251Z,2.38
2022-08-09T22:32:29.853Z,2.28
2022-08-09T22:35:02.619Z,1.80
2022-08-09T22:37:40.332Z,1.17
2022-08-09T22:40:20.000Z,1.75
2022-08-09T22:42:49.863Z,1.42
2022-08-09T22:48:12.379Z,1.38
2022-08-09T22:48:19.879Z,3.45
2022-08-09T22:50:58.059Z,1.20
2022-08-09T22:53:44.097Z,2.85
2022-08-09T22:56:33.376Z,2.33
2022-08-09T22:59:57.101Z,1.70
2022-08-09T23:01:55.335Z,3.97
2022-08-09T23:04:25.548Z,4.47
2022-08-09T23:07:11.115Z,2.88
2022-08-09T23:09:41.612Z,2.67
2022-08-09T23:12:11.068Z,1.73
2022-08-09T23:14:42.195Z,3.55
2022-08-09T23:17:13.086Z,1.58
2022-08-09T23:20:00.667Z,2.53
2022-08-09T23:22:31.755Z,2.85
2022-08-09T23:25:01.154Z,2.30
2022-08-09T23:27:30.546Z,2.70
2022-08-09T23:29:59.848Z,1.55
2022-08-09T23:32:31.997Z,1.42
2022-08-09T23:35:01.498Z,3.42
2022-08-09T23:37:30.783Z,6.10
2022-08-09T23:40:00.126Z,2.83
2022-08-09T23:42:31.049Z,2.83
2022-08-09T23:45:00.946Z,6.22
2022-08-09T23:47:30.234Z,2.10
2022-08-09T23:49:59.595Z,1.60
2022-08-09T23:52:28.911Z,3.45
2022-08-09T23:55:00.269Z,3.57
2022-08-09T23:57:29.755Z,2.67
